Latest Coastal Weather Observations for East Sale

IDV60701

Issued at 2:22 am EST Saturday 19 August 2017 (issued every 10 minutes, with the page automatically refreshed every 10 minutes)

About coastal observations | Map of coastal stations | Coastal observations for VIC | Marine services | Other Formats
Station Details ID: 085072 Name: EAST SALE AIRPORT Lat: -38.12 Lon: 147.13 Height: 4.6 m
Data from the previous 72 hours. | See also: Recent months at East Sale
Date/Time
EST
Temp
°C
Wind Pressure Rain since
9am
mm
Weather Cloud Vis
km
Sea
Height
m
Swell
Dir  Spd
kts
Gust
kts
hPa Trend Height
m
Period
s
Dir
19/02:00am 4.9 WNW 11 16 1018.6 - 2.8 - - 10 - - - -
19/01:30am 5.6 W 11 15 1018.4 - 2.8 - - 10 - - - -
19/01:00am 5.6 W 12 16 1018.1 - 2.8 - - 10 - - - -
19/12:30am 5.4 WNW 11 15 1018.1 - 2.8 - Partly cloudy 10 - - - -
19/12:00am 5.7 WNW 12 16 1017.7 R 2.8 - - 10 - - - -
 
Date/Time
EST
Temp
°C
Wind Pressure Rain since
9am
mm
Weather Cloud Vis
km
Sea
Height
m
Swell
Dir  Spd
kts
Gust
kts
hPa Trend Height
m
Period
s
Dir
18/11:30pm 5.9 WNW 11 17 1017.4 - 2.8 - - 10 - - - -
18/11:00pm 6.1 WNW 11 14 1017.1 - 2.8 - - 10 - - - -
18/10:30pm 6.4 W 9 12 1017.2 - 2.8 - - 10 - - - -
18/10:00pm 6.6 W 11 15 1016.6 - 2.4 - - 10 - - - -
18/09:30pm 6.6 W 11 15 1016.2 - 2.4 - - 10 - - - -
18/09:00pm 6.8 W 11 15 1016.0 R 2.4 Rain Cloudy 10 - - - -
18/08:30pm 6.4 WNW 11 15 1015.2 - 2.2 - - 10 - - - -
18/08:00pm 6.6 WNW 10 14 1015.0 - 2.2 - - 10 - - - -
18/07:30pm 6.9 WNW 11 16 1014.7 - 2.2 - Partly cloudy 10 - - - -
18/07:00pm 7.1 WNW 11 14 1014.1 - 2.2 - - 10 - - - -
18/06:30pm 7.4 WNW 12 19 1013.5 - 2.2 - - 10 - - - -
18/06:00pm 7.7 WNW 14 20 1013.0 R 2.0 - - 10 - - - -
18/05:30pm 7.8 WNW 15 23 1012.3 - 2.0 - - 10 - - - -
18/05:00pm 8.2 WNW 16 21 1011.6 - 2.0 - - 10 - - - -
18/04:30pm 8.1 W 17 24 1011.1 - 2.0 - Partly cloudy 10 - - - -
18/04:00pm 8.6 W 13 19 1010.7 - 2.0 - Partly cloudy 10 - - - -
18/03:30pm 8.1 W 16 22 1010.0 - 2.0 Showers Partly cloudy 10 - - - -
18/03:00pm 8.0 WNW 18 28 1009.3 R 1.6 - Partly cloudy 10 - - - -
18/02:30pm 7.5 WNW 20 30 1009.2 - 1.6 - Mostly clear 10 - - - -
18/02:11pm 7.3 W 17 27 1008.9 - 1.6 Showers Mostly clear 10 - - - -
18/02:00pm 7.4 W 16 24 1009.0 - 1.6 - Mostly clear 10 - - - -
18/01:30pm 7.1 W 20 29 1008.9 - 1.6 Showers Mostly clear 10 - - - -
18/01:05pm 8.6 W 17 27 1008.4 - 1.4 - Mostly clear 10 - - - -
18/01:00pm 8.6 W 19 27 1008.3 - 1.4 - Mostly clear 10 - - - -
18/12:44pm 8.3 W 19 32 1008.1 - 1.4 - Mostly clear 10 - - - -
18/12:30pm 8.4 W 19 27 1008.0 - 1.4 - Mostly clear 10 - - - -
18/12:00pm 8.1 WNW 18 28 1008.2 R 1.4 - Mostly clear 10 - - - -
18/11:41am 7.6 W 16 30 1008.1 - 1.4 - Mostly clear 10 - - - -
18/11:30am 7.5 WNW 18 25 1008.1 - 1.4 - Mostly clear 10 - - - -
18/11:00am 7.0 W 16 22 1007.8 - 1.4 - Mostly clear 10 - - - -
18/10:33am 8.3 W 19 29 1007.7 - 0.4 Showers Mostly clear 10 - - - -
18/10:30am 8.5 W 21 29 1007.7 - 0.4 - Mostly clear 10 - - - -
18/10:12am 9.3 W 18 30 1007.0 - 0.4 - Mostly clear 10 - - - -
18/10:00am 9.2 W 16 24 1006.7 - 0.4 - Mostly clear 10 - - - -
18/09:30am 7.9 W 16 22 1006.5 - 0.4 Showers Mostly clear 10 - - - -
18/09:00am 8.4 W 12 18 1006.4 R 8.6 - Mostly clear 10 - - - -
18/08:30am 7.9 W 13 21 1005.9 - 8.6 - Mostly clear 10 - - - -
18/08:00am 8.2 WNW 12 18 1005.3 - 8.6 - - 10 - - - -
18/07:30am 8.1 WNW 12 17 1004.8 - 8.6 - Partly cloudy 10 - - - -
18/07:00am 8.0 WNW 19 25 1004.4 - 8.6 - Partly cloudy 10 - - - -
18/06:47am 8.5 WNW 15 25 1004.3 - 8.6 - - 10 - - - -
18/06:30am 8.6 WNW 12 16 1004.1 - 8.6 - - 10 - - - -
18/06:00am 8.7 WNW 15 21 1003.6 R 8.6 - - 10 - - - -
18/05:30am 8.7 WNW 15 21 1003.1 - 8.6 - Partly cloudy 10 - - - -
18/05:00am 8.3 WNW 11 17 1002.9 - 8.6 - - 10 - - - -
18/04:30am 8.4 W 8 11 1002.9 - 8.6 - Partly cloudy 10 - - - -
18/04:00am 9.1 WNW 12 21 1002.5 - 8.6 - - 10 - - - -
18/03:30am 8.3 NW 11 15 1002.5 - 8.6 - - 10 - - - -
18/03:00am 7.8 NW 10 14 1002.1 R 8.6 - - 10 - - - -
18/02:30am 8.0 WNW 11 15 1002.1 - 8.6 - - 10 - - - -
18/02:00am 8.9 WNW 14 20 1002.3 - 8.6 - - 10 - - - -
18/01:40am 8.6 WNW 16 26 1002.1 - 8.6 - - 10 - - - -
18/01:30am 8.7 WNW 15 24 1002.1 - 8.6 - - 10 - - - -
18/01:00am 8.3 WNW 11 15 1002.3 - 8.6 - - 10 - - - -
18/12:30am 8.5 W 11 15 1002.7 - 8.6 - - 10 - - - -
18/12:00am 8.9 WNW 12 16 1002.4 F 8.6 - - 10 - - - -
 
Date/Time
EST
Temp
°C
Wind Pressure Rain since
9am
mm
Weather Cloud Vis
km
Sea
Height
m
Swell
Dir  Spd
kts
Gust
kts
hPa Trend Height
m
Period
s
Dir
17/11:35pm 9.1 WNW 15 25 1002.1 - 8.6 - - 10 - - - -
17/11:30pm 9.1 WNW 15 24 1002.1 - 8.6 - - 10 - - - -
17/11:00pm 8.3 NW 11 15 1002.1 - 8.6 - - 10 - - - -
17/10:30pm 8.0 NW 9 13 1002.4 - 8.6 - - 10 - - - -
17/10:00pm 8.0 NW 8 10 1002.6 - 8.6 - - 10 - - - -
17/09:30pm 8.5 W 17 25 1003.2 - 8.6 - Partly cloudy 10 - - - -
17/09:19pm 8.7 WNW 11 27 1003.4 - 8.2 - - 10 - - - -
17/09:00pm 7.2 NW 4 6 1003.1 R 8.2 - - 10 - - - -
17/08:30pm 7.6 WSW 6 7 1003.1 - 8.2 - - 10 - - - -
17/08:00pm 7.3 NW 12 15 1002.8 - 8.2 - - 10 - - - -
17/07:30pm 7.8 WNW 11 17 1002.3 - 8.2 - - 10 - - - -
17/07:00pm 7.6 WNW 18 26 1002.9 - 8.2 - - 9 - - - -
17/06:33pm 9.1 W 22 36 1002.7 - 5.6 - - 6 - - - -
17/06:30pm 9.5 WSW 19 32 1002.7 - 5.4 - - 8 - - - -
17/06:26pm 10.3 WSW 13 32 1002.0 - 5.2 - - 10 - - - -
17/06:24pm 10.6 WSW 11 22 1001.9 - 5.2 - - 10 - - - -
17/06:00pm 11.6 WNW 7 10 1000.8 R 4.6 - - 10 - - - -
17/05:30pm 11.8 WNW 9 13 1000.3 - 4.6 - - 10 - - - -
17/05:00pm 12.2 W 12 16 1000.4 - 4.6 - - 10 - - - -
17/04:30pm 12.4 WNW 8 17 1000.2 - 4.6 - Mostly clear 10 - - - -
17/04:00pm 12.8 WNW 9 12 1000.0 - 4.6 - Mostly clear 10 - - - -
17/03:30pm 13.0 NW 16 21 1000.1 - 4.6 Showers Mostly clear 10 - - - -
17/03:00pm 13.9 WNW 20 29 999.7 R 4.6 - Partly cloudy 10 - - - -
17/02:36pm 14.7 WNW 15 26 999.5 - 4.6 - Partly cloudy 10 - - - -
17/02:30pm 14.5 WNW 11 16 999.3 - 4.6 - Partly cloudy 10 - - - -
17/02:00pm 14.1 WNW 15 19 999.7 - 4.6 - Partly cloudy 10 - - - -
17/01:30pm 12.9 WNW 10 15 999.6 - 4.6 - - 10 - - - -
17/01:00pm 11.9 WNW 8 11 999.6 - 4.6 - Partly cloudy 10 - - - -
17/12:43pm 10.9 NW 9 12 999.5 - 4.6 - Partly cloudy 10 - - - -
17/12:30pm 10.2 NW 9 11 999.9 - 4.6 - Mostly clear 10 - - - -
17/12:00pm 9.2 W 10 15 1000.6 R 4.4 Recent precip. Mostly clear 10 - - - -
17/11:30am 8.7 W 17 24 1001.2 - 4.0 Showers Mostly cloudy 9 - - - -
17/11:00am 9.2 W 11 16 1001.4 - 2.6 - Cloudy 10 - - - -
17/10:30am 9.2 W 15 20 1001.5 - 2.2 Showers Partly cloudy 9 - - - -
17/10:00am 9.3 W 16 23 1001.2 - 1.6 - Partly cloudy 10 - - - -
17/09:30am 9.1 W 18 26 1001.6 - 1.6 Showers Partly cloudy 9 - - - -
17/09:25am 9.1 W 18 26 1001.6 - 1.6 Showers Partly cloudy 6 - - - -
17/09:00am 9.3 WSW 15 28 1001.3 S 4.0 Rain Cloudy 10 - - - -
17/08:30am 10.6 W 15 26 1001.5 - 3.6 Showers Cloudy 10 - - - -
17/08:25am 10.6 W 18 28 1001.4 - 3.6 Showers - 10 - - - -
17/08:00am 11.0 NW 11 14 1001.2 - 3.4 - - 10 - - - -
17/07:30am 10.9 NW 9 11 1001.1 - 3.4 - - 10 - - - -
17/07:02am 9.0 N 10 11 - - 3.4 - - 10 - - - -
17/07:00am 8.9 N 10 11 1000.9 - 3.4 - - 10 - - - -
17/06:30am 10.5 NNW 7 9 1000.7 - 3.4 - - 10 - - - -
17/06:00am 11.0 NW 8 12 1000.4 F 3.4 - - 10 - - - -
17/05:30am 9.8 NW 8 10 1000.6 - 3.4 - - 10 - - - -
17/05:00am 9.3 W 6 8 1000.6 - 3.4 - - 10 - - - -
17/04:30am 9.5 W 5 7 1000.4 - 3.4 - - 10 - - - -
17/04:00am 10.0 NW 10 13 1000.2 - 3.4 - - 10 - - - -
17/03:35am 10.2 NW 14 20 1000.1 - 3.4 - Partly cloudy 10 - - - -
17/03:30am 10.1 NW 16 23 1000.2 - 3.2 - Partly cloudy 10 - - - -
17/03:20am 10.1 WNW 15 21 1000.5 - 3.2 - Partly cloudy 6 - - - -
17/03:02am 10.0 WNW 18 28 1000.7 - 2.2 - - 10 - - - -
17/03:00am 10.0 WNW 20 29 1000.6 R 2.2 Rain - 10 - - - -
17/02:42am 11.4 NW 16 27 1001.1 - 1.0 - - 10 - - - -
17/02:41am 11.6 NW 15 22 1001.1 - 1.0 - - 10 - - - -
17/02:30am 11.3 WNW 9 11 1000.9 - 0.8 - - 10 - - - -
17/02:00am 11.4 NW 11 13 1000.1 - 0.0 - - 10 - - - -
17/01:30am 10.9 NNW 10 12 1000.3 - 0.0 - - 10 - - - -
17/01:00am 11.5 NNW 13 17 1000.8 - 0.0 - - 10 - - - -
17/12:30am 12.3 NW 15 20 1000.9 - 0.0 - - 10 - - - -
17/12:00am 11.9 NW 15 22 1000.8 F 0.0 - Partly cloudy 10 - - - -
 
Date/Time
EST
Temp
°C
Wind Pressure Rain since
9am
mm
Weather Cloud Vis
km
Sea
Height
m
Swell
Dir  Spd
kts
Gust
kts
hPa Trend Height
m
Period
s
Dir
16/11:30pm 11.9 WNW 14 18 1001.2 - 0.0 - - 10 - - - -
16/11:00pm 13.1 WNW 15 21 1001.3 - 0.0 - Partly cloudy 10 - - - -
16/10:30pm 12.0 NW 15 19 1001.1 - 0.0 - - 10 - - - -
16/10:00pm 12.4 NW 17 21 1001.2 - 0.0 - - 10 - - - -
16/09:30pm 12.3 NW 15 20 1001.1 - 0.0 - - 10 - - - -
16/09:00pm 11.6 NW 13 17 1001.1 R 0.0 - Mostly clear 10 - - - -
16/08:30pm 12.1 NW 16 22 1000.8 - 0.0 - - 10 - - - -
16/08:00pm 11.7 NW 16 21 1000.6 - 0.0 - - 10 - - - -
16/07:30pm 11.7 NW 16 20 1000.4 - 0.0 - Partly cloudy 10 - - - -
16/07:00pm 11.6 NW 14 20 1000.5 - 0.0 - - 10 - - - -
16/06:30pm 12.0 NW 14 21 1000.1 - 0.0 - - 10 - - - -
16/06:00pm 11.3 WNW 11 14 999.9 R 0.0 - - 10 - - - -
16/05:30pm 11.3 W 12 16 999.3 - 0.0 - - 10 - - - -
16/05:00pm 11.9 W 14 20 998.9 - 0.0 - Partly cloudy 10 - - - -
16/04:30pm 12.5 W 13 20 998.7 - 0.0 - Mostly clear 10 - - - -
16/04:00pm 12.3 W 20 28 998.1 - 0.0 - - 10 - - - -
16/03:44pm 12.6 W 19 29 998.1 - 0.0 - Mostly clear 10 - - - -
16/03:30pm 14.9 W 15 22 997.3 - 0.0 Showers Mostly clear 10 - - - -
16/03:00pm 15.5 W 25 35 996.8 R 0.0 - - 10 - - - -
16/02:30pm 16.1 WNW 21 32 996.6 - 0.0 - - 10 - - - -
16/02:00pm 16.2 WNW 25 35 996.0 - 0.0 - - 10 - - - -
16/01:30pm 15.8 WNW 21 31 995.7 - 0.0 - Partly cloudy 10 - - - -
16/01:05pm 16.0 WNW 23 34 995.7 - 0.0 - Partly cloudy 10 - - - -
16/01:00pm 15.7 WNW 25 34 995.7 - 0.0 - Partly cloudy 10 - - - -
16/12:33pm 16.3 WNW 26 36 995.7 - 0.0 - Partly cloudy 10 - - - -
16/12:30pm 16.1 WNW 27 36 995.6 - 0.0 - - 10 - - - -
16/12:00pm 15.6 WNW 25 37 995.7 R 0.0 - Partly cloudy 10 - - - -
16/11:30am 14.8 WNW 26 40 996.1 - 0.0 - Partly cloudy 10 - - - -
16/11:00am 14.5 WNW 23 36 996.0 - 0.0 - Partly cloudy 10 - - - -
16/10:30am 14.5 WNW 23 33 995.3 - 0.0 - Partly cloudy 10 - - - -
16/10:00am 14.0 WNW 24 38 995.2 - 0.0 - Partly cloudy 10 - - - -
16/09:30am 14.2 WNW 21 32 995.0 - 0.0 - Partly cloudy 10 - - - -
16/09:00am 13.4 WNW 15 23 994.9 R 5.0 - Cloudy 10 - - - -
16/08:33am 13.3 NW 15 28 994.5 - 5.0 - Mostly clear 10 - - - -
16/08:30am 13.1 WNW 12 28 994.4 - 5.0 - Mostly clear 10 - - - -
16/08:00am 12.5 NW 10 15 994.1 - 5.0 - Mostly clear 10 - - - -
16/07:30am 10.1 NNW 7 10 993.5 - 5.0 - Mostly clear 10 - - - -
16/07:00am 11.0 NNW 6 8 993.1 - 5.0 - Mostly clear 10 - - - -
16/06:30am 9.4 NNE 5 7 993.0 - 5.0 - - 10 - - - -
16/06:00am 9.1 NW 4 5 992.7 F 5.0 - - 10 - - - -
16/05:30am 10.1 NNW 4 6 992.5 - 5.0 - - 10 - - - -
16/05:00am 11.3 NW 8 10 992.3 - 5.0 - - 10 - - - -
16/04:30am 12.7 NW 11 14 992.3 - 5.0 - - 10 - - - -
16/04:00am 12.0 NNW 5 7 992.3 - 5.0 - - 10 - - - -
16/03:30am 11.6 NNW 4 6 992.9 - 5.0 - Partly cloudy 10 - - - -
16/03:00am 11.4 NW 5 7 993.3 F 5.0 - - 10 - - - -
16/02:30am 11.7 NW 7 9 993.7 - 5.0 - - 10 - - - -

Other Formats:

Comma delimited format used in spreadsheet applications
http://www.bom.gov.au/fwo/IDV60701/IDV60701.94907.axf

JavaScript Object Notation format (JSON) in row-major order
http://www.bom.gov.au/fwo/IDV60701/IDV60701.94907.json